createdAt,value
2023-08-03T00:01:00.382Z,100
2023-08-03T00:21:06.903Z,100
2023-08-03T00:26:08.151Z,100
2023-08-03T00:31:10.414Z,100
2023-08-03T00:36:12.424Z,100
2023-08-03T00:41:14.210Z,100
2023-08-03T00:46:15.596Z,100
2023-08-03T00:51:17.416Z,100
2023-08-03T00:56:18.869Z,100
2023-08-03T01:01:20.307Z,100
2023-08-03T01:06:22.252Z,100
2023-08-03T01:11:23.654Z,100
2023-08-03T01:16:25.894Z,100
2023-08-03T01:21:27.829Z,100
2023-08-03T01:26:29.727Z,100
2023-08-03T01:31:30.949Z,100
2023-08-03T01:36:32.325Z,100
2023-08-03T01:41:33.580Z,100
2023-08-03T01:46:34.990Z,100
2023-08-03T01:51:36.901Z,100
2023-08-03T01:56:38.403Z,100
2023-08-03T02:01:40.110Z,100
2023-08-03T02:06:41.705Z,100
2023-08-03T02:11:43.150Z,100
2023-08-03T02:16:44.495Z,100
2023-08-03T02:21:46.452Z,100
2023-08-03T02:26:48.200Z,100
2023-08-03T02:31:50.185Z,100
2023-08-03T02:36:52.054Z,100
2023-08-03T02:41:53.682Z,100
2023-08-03T02:46:55.033Z,100
2023-08-03T02:51:56.598Z,100
2023-08-03T02:56:58.634Z,100
2023-08-03T03:02:00.564Z,100
2023-08-03T03:07:01.826Z,100
2023-08-03T03:12:03.179Z,100
2023-08-03T03:17:05.103Z,100
2023-08-03T03:22:06.398Z,100
2023-08-03T03:27:07.834Z,100
2023-08-03T03:32:09.491Z,100
2023-08-03T03:37:11.126Z,100
2023-08-03T03:42:12.848Z,100
2023-08-03T03:47:14.521Z,100
2023-08-03T03:52:15.836Z,100
2023-08-03T03:57:17.530Z,100
2023-08-03T04:02:19.159Z,100
2023-08-03T04:07:21.054Z,100
2023-08-03T04:12:23.022Z,100
2023-08-03T04:17:24.463Z,100
2023-08-03T04:22:25.654Z,100
2023-08-03T04:27:26.863Z,100
2023-08-03T04:32:28.198Z,100
2023-08-03T04:37:29.782Z,100
2023-08-03T04:42:30.939Z,100
2023-08-03T04:47:32.170Z,100
2023-08-03T04:52:33.639Z,100
2023-08-03T04:57:35.078Z,100
2023-08-03T05:02:36.911Z,100
2023-08-03T05:07:38.054Z,100
2023-08-03T05:12:39.954Z,100
2023-08-03T05:17:41.412Z,100
2023-08-03T05:22:42.711Z,100
2023-08-03T05:27:44.440Z,100
2023-08-03T05:32:46.348Z,100
2023-08-03T05:37:48.143Z,100
2023-08-03T05:42:50.063Z,100
2023-08-03T05:47:51.771Z,100
2023-08-03T05:52:52.957Z,100
2023-08-03T05:57:55.127Z,100
2023-08-03T06:02:57.267Z,100
2023-08-03T06:07:58.707Z,100
2023-08-03T06:13:00.496Z,100
2023-08-03T06:18:02.469Z,100
2023-08-03T06:23:04.006Z,100
2023-08-03T06:28:05.820Z,100
2023-08-03T06:33:07.903Z,100
2023-08-03T06:38:09.385Z,100
2023-08-03T06:43:10.663Z,100
2023-08-03T06:48:12.041Z,100
2023-08-03T06:53:13.236Z,100
2023-08-03T06:58:21.666Z,100
2023-08-03T07:03:23.638Z,100
2023-08-03T07:08:25.652Z,100
2023-08-03T07:13:27.271Z,100
2023-08-03T07:18:28.791Z,100
2023-08-03T07:23:30.579Z,100
2023-08-03T07:28:31.994Z,100
2023-08-03T07:33:33.725Z,100
2023-08-03T07:38:35.358Z,100
2023-08-03T07:43:36.826Z,100
2023-08-03T07:48:38.294Z,100
2023-08-03T07:53:39.797Z,100
2023-08-03T07:58:41.789Z,100
2023-08-03T08:03:43.458Z,100
2023-08-03T08:08:45.524Z,100
2023-08-03T08:13:46.778Z,100
2023-08-03T08:18:48.019Z,100
2023-08-03T08:23:49.882Z,100
2023-08-03T08:29:02.925Z,100
2023-08-03T08:33:55.060Z,100
2023-08-03T08:38:55.110Z,100
2023-08-03T08:43:57.233Z,98
2023-08-03T08:48:58.640Z,96
2023-08-03T09:09:05.434Z,98
2023-08-03T09:14:07.088Z,92
2023-08-03T09:19:08.580Z,92
2023-08-03T09:29:18.472Z,88
2023-08-03T09:34:13.542Z,90
2023-08-03T09:44:16.887Z,84
2023-08-03T09:49:18.984Z,82
2023-08-03T09:54:20.403Z,85
2023-08-03T09:59:22.097Z,90
2023-08-03T10:04:23.524Z,90
2023-08-03T10:09:25.331Z,77
2023-08-03T10:14:27.023Z,79
2023-08-03T10:19:28.814Z,83
2023-08-03T10:24:30.049Z,81
2023-08-03T10:29:31.625Z,85
2023-08-03T10:34:33.386Z,74
2023-08-03T10:39:35.347Z,77
2023-08-03T10:44:36.789Z,71
2023-08-03T10:49:38.270Z,73
2023-08-03T10:54:40.201Z,75
2023-08-03T10:59:42.100Z,73
2023-08-03T11:04:43.083Z,79
2023-08-03T11:09:45.041Z,75
2023-08-03T11:14:55.593Z,75
2023-08-03T11:19:48.347Z,79
2023-08-03T11:24:49.992Z,82
2023-08-03T11:29:51.781Z,79
2023-08-03T11:34:53.213Z,81
2023-08-03T11:39:54.500Z,80
2023-08-03T11:44:57.078Z,84
2023-08-03T11:49:56.986Z,84
2023-08-03T11:54:58.461Z,83
2023-08-03T11:59:59.844Z,80
2023-08-03T12:10:02.855Z,85
2023-08-03T12:15:04.527Z,82
2023-08-03T12:20:06.138Z,91
2023-08-03T12:25:07.672Z,78
2023-08-03T12:30:09.162Z,79
2023-08-03T12:35:10.427Z,91
2023-08-03T12:40:11.913Z,74
2023-08-03T12:45:13.428Z,76
2023-08-03T12:50:14.680Z,78
2023-08-03T12:55:16.752Z,78
2023-08-03T13:00:18.740Z,76
2023-08-03T13:05:20.721Z,75
2023-08-03T13:10:22.310Z,74
2023-08-03T13:15:23.801Z,76
2023-08-03T13:20:26.026Z,76
2023-08-03T13:25:26.483Z,83
2023-08-03T13:30:28.080Z,88
2023-08-03T13:35:30.275Z,100
2023-08-03T13:40:31.999Z,100
2023-08-03T13:45:33.827Z,100
2023-08-03T13:50:35.679Z,100
2023-08-03T13:55:37.394Z,100
2023-08-03T14:10:42.618Z,100
2023-08-03T14:45:54.214Z,100
2023-08-03T15:06:00.347Z,100
2023-08-03T15:11:03.058Z,100
2023-08-03T15:16:28.134Z,100
2023-08-03T15:21:05.478Z,100
2023-08-03T15:26:07.553Z,100
2023-08-03T15:31:09.501Z,100
2023-08-03T15:36:12.753Z,100
2023-08-03T15:41:13.902Z,100
2023-08-03T15:46:19.808Z,100
2023-08-03T15:51:18.899Z,100
2023-08-03T15:56:19.079Z,100
2023-08-03T16:01:20.448Z,100
2023-08-03T16:06:22.204Z,100
2023-08-03T16:11:35.021Z,100
2023-08-03T16:16:25.157Z,100
2023-08-03T16:21:26.973Z,100
2023-08-03T16:26:28.645Z,100
2023-08-03T16:31:30.352Z,100
2023-08-03T16:36:33.018Z,100
2023-08-03T16:41:34.129Z,100
2023-08-03T16:46:35.834Z,100
2023-08-03T16:51:37.574Z,100
2023-08-03T16:56:38.712Z,100
2023-08-03T17:01:40.471Z,100
2023-08-03T17:06:41.776Z,100
2023-08-03T17:11:43.456Z,100
2023-08-03T17:16:45.643Z,100
2023-08-03T17:21:46.755Z,100
2023-08-03T17:26:48.488Z,100
2023-08-03T17:31:50.260Z,100
2023-08-03T17:36:51.960Z,100
2023-08-03T17:41:53.565Z,100
2023-08-03T17:46:54.911Z,100
2023-08-03T17:51:56.892Z,100
2023-08-03T17:56:58.610Z,100
2023-08-03T18:01:59.886Z,100
2023-08-03T18:07:01.818Z,100
2023-08-03T18:12:03.825Z,100
2023-08-03T18:17:05.886Z,100
2023-08-03T18:22:07.294Z,100
2023-08-03T18:27:08.925Z,100
2023-08-03T18:32:10.930Z,100
2023-08-03T18:37:12.739Z,100
2023-08-03T18:42:14.376Z,100
2023-08-03T18:47:15.675Z,100
2023-08-03T18:52:17.349Z,100
2023-08-03T18:57:18.814Z,100
2023-08-03T19:02:20.125Z,100
2023-08-03T19:07:21.714Z,100
2023-08-03T19:12:23.579Z,100
2023-08-03T19:17:25.020Z,100
2023-08-03T19:22:26.814Z,100
2023-08-03T19:27:28.037Z,100
2023-08-03T19:32:30.087Z,100
2023-08-03T19:37:31.247Z,100
2023-08-03T19:42:33.362Z,100
2023-08-03T19:47:35.373Z,100
2023-08-03T20:07:41.557Z,100
2023-08-03T20:12:43.344Z,100
2023-08-03T20:17:44.952Z,100
2023-08-03T20:22:46.650Z,100
2023-08-03T20:32:49.930Z,100
2023-08-03T20:38:07.011Z,100
2023-08-03T20:42:53.006Z,100
2023-08-03T20:47:54.265Z,100
2023-08-03T20:52:55.986Z,100
2023-08-03T20:57:57.385Z,100
2023-08-03T21:03:00.593Z,100
2023-08-03T21:08:01.135Z,100
2023-08-03T21:13:02.656Z,100
2023-08-03T21:18:04.610Z,100
2023-08-03T21:23:06.252Z,100
2023-08-03T21:28:07.488Z,100
2023-08-03T21:33:09.028Z,100
2023-08-03T21:38:10.510Z,100
2023-08-03T21:43:11.922Z,100
2023-08-03T21:48:13.364Z,100
2023-08-03T21:53:15.061Z,100
2023-08-03T21:58:16.502Z,100
2023-08-03T22:03:26.892Z,100
2023-08-03T22:08:19.545Z,100
2023-08-03T22:13:20.830Z,100
2023-08-03T22:18:22.214Z,100
2023-08-03T22:23:24.068Z,100
2023-08-03T22:28:25.448Z,100
2023-08-03T22:33:26.702Z,100
2023-08-03T22:38:28.826Z,100
2023-08-03T22:43:30.277Z,100
2023-08-03T22:48:32.401Z,100
2023-08-03T22:53:34.419Z,100
2023-08-03T22:58:36.515Z,100
2023-08-03T23:03:38.684Z,100
2023-08-03T23:08:40.328Z,100
2023-08-03T23:13:42.449Z,100
2023-08-03T23:18:43.718Z,100
2023-08-03T23:23:45.542Z,100
2023-08-03T23:28:46.841Z,100
2023-08-03T23:33:48.399Z,100
2023-08-03T23:38:49.839Z,100
2023-08-03T23:43:57.962Z,100
2023-08-03T23:49:00.062Z,100
2023-08-03T23:54:02.119Z,100
2023-08-03T23:59:04.073Z,100
